createdAt,value
2023-02-06T00:02:21.061Z,9.57
2023-02-06T00:05:23.469Z,9.83
2023-02-06T00:08:26.813Z,10.30
2023-02-06T00:11:29.303Z,11.38
2023-02-06T00:14:32.678Z,10.27
2023-02-06T00:17:36.667Z,12.35
2023-02-06T00:20:39.178Z,11.45
2023-02-06T00:23:41.768Z,10.90
2023-02-06T00:26:44.135Z,11.50
2023-02-06T00:29:46.475Z,10.68
2023-02-06T00:32:49.246Z,11.38
2023-02-06T00:35:51.544Z,10.57
2023-02-06T00:38:53.922Z,9.93
2023-02-06T00:41:56.280Z,10.35
2023-02-06T00:44:58.608Z,10.70
2023-02-06T00:48:01.244Z,10.13
2023-02-06T00:51:03.663Z,9.60
2023-02-06T00:54:07.252Z,10.23
2023-02-06T00:57:09.553Z,10.02
2023-02-06T01:00:12.442Z,9.77
2023-02-06T01:03:14.790Z,9.87
2023-02-06T01:06:17.976Z,11.05
2023-02-06T01:09:20.236Z,11.13
2023-02-06T01:12:22.755Z,12.03
2023-02-06T01:15:25.501Z,11.17
2023-02-06T01:18:27.868Z,12.20
2023-02-06T01:21:30.143Z,13.43
2023-02-06T01:24:33.591Z,12.00
2023-02-06T01:27:37.666Z,11.00
2023-02-06T01:30:40.115Z,10.63
2023-02-06T01:33:42.809Z,11.18
2023-02-06T01:36:45.637Z,10.83
2023-02-06T01:39:47.956Z,11.63
2023-02-06T01:42:50.328Z,10.25
2023-02-06T01:45:53.182Z,12.45
2023-02-06T01:48:56.094Z,12.10
2023-02-06T01:52:05.805Z,11.70
2023-02-06T01:55:08.208Z,10.38
2023-02-06T01:58:11.932Z,10.95
2023-02-06T02:01:14.658Z,11.20
2023-02-06T02:04:19.990Z,10.53
2023-02-06T02:07:27.983Z,10.30
2023-02-06T02:10:31.051Z,9.82
2023-02-06T02:13:34.386Z,9.40
2023-02-06T02:16:36.888Z,10.10
2023-02-06T02:20:18.445Z,9.85
2023-02-06T02:23:34.966Z,10.02
2023-02-06T02:26:55.534Z,9.73
2023-02-06T02:30:03.695Z,9.67
2023-02-06T02:33:30.848Z,9.13
2023-02-06T02:36:39.415Z,9.00
2023-02-06T02:39:46.739Z,9.70
2023-02-06T02:43:16.471Z,9.37
2023-02-06T02:46:19.159Z,9.95
2023-02-06T02:49:27.225Z,8.93
2023-02-06T02:52:30.166Z,9.27
2023-02-06T02:55:32.643Z,9.00
2023-02-06T02:58:37.844Z,9.82
2023-02-06T03:01:48.530Z,9.55
2023-02-06T03:04:54.841Z,9.17
2023-02-06T03:08:22.723Z,10.32
2023-02-06T03:11:25.587Z,9.70
2023-02-06T03:14:44.666Z,9.47
2023-02-06T03:17:51.925Z,9.93
2023-02-06T03:20:54.416Z,10.13
2023-02-06T03:23:59.893Z,9.93
2023-02-06T03:27:05.340Z,9.80
2023-02-06T03:30:10.439Z,8.63
2023-02-06T03:33:14.749Z,8.55
2023-02-06T03:36:18.504Z,9.50
2023-02-06T03:39:21.371Z,9.77
2023-02-06T03:42:25.094Z,8.30
2023-02-06T03:45:33.492Z,8.30
2023-02-06T03:48:44.873Z,7.73
2023-02-06T03:52:13.576Z,7.77
2023-02-06T03:55:22.333Z,8.30
2023-02-06T03:58:24.851Z,8.02
2023-02-06T04:01:27.691Z,7.60
2023-02-06T04:04:35.255Z,8.00
2023-02-06T04:07:37.643Z,8.55
2023-02-06T04:10:39.955Z,8.48
2023-02-06T04:13:42.237Z,8.53
2023-02-06T04:16:44.606Z,7.43
2023-02-06T04:19:46.935Z,8.57
2023-02-06T04:22:49.296Z,7.97
2023-02-06T04:25:51.671Z,7.53
2023-02-06T04:28:54.022Z,7.28
2023-02-06T04:32:02.078Z,8.13
2023-02-06T04:35:04.787Z,7.57
2023-02-06T04:38:07.064Z,6.50
2023-02-06T04:41:10.273Z,7.13
2023-02-06T04:44:12.682Z,6.63
2023-02-06T04:47:15.066Z,7.13
2023-02-06T04:50:18.022Z,6.88
2023-02-06T04:53:20.392Z,6.65
2023-02-06T04:56:22.678Z,7.83
2023-02-06T04:59:24.998Z,7.83
2023-02-06T05:02:27.456Z,8.50
2023-02-06T05:05:29.879Z,8.68
2023-02-06T05:08:32.256Z,8.67
2023-02-06T05:11:34.725Z,8.30
2023-02-06T05:14:37.336Z,8.93
2023-02-06T05:17:39.816Z,8.18
2023-02-06T05:20:42.956Z,10.43
2023-02-06T05:23:45.265Z,7.80
2023-02-06T05:26:47.577Z,8.10
2023-02-06T05:29:49.972Z,9.52
2023-02-06T05:32:52.429Z,10.30
2023-02-06T05:35:54.986Z,14.30
2023-02-06T05:38:57.382Z,12.25
2023-02-06T05:41:59.704Z,9.40
2023-02-06T05:45:02.276Z,7.93
2023-02-06T05:48:04.872Z,9.00
2023-02-06T05:51:07.218Z,7.97
2023-02-06T05:54:09.538Z,8.37
2023-02-06T05:57:11.874Z,7.85
2023-02-06T06:00:14.846Z,8.55
2023-02-06T06:03:19.261Z,7.35
2023-02-06T06:06:21.594Z,7.47
2023-02-06T06:09:24.030Z,6.90
2023-02-06T06:12:26.437Z,7.15
2023-02-06T06:15:29.199Z,8.10
2023-02-06T06:18:32.914Z,7.63
2023-02-06T06:21:35.791Z,6.97
2023-02-06T06:24:49.865Z,9.20
2023-02-06T06:27:52.494Z,9.60
2023-02-06T06:31:02.841Z,10.30
2023-02-06T06:34:05.424Z,8.73
2023-02-06T06:37:07.738Z,8.90
2023-02-06T06:43:42.649Z,9.83
2023-02-06T06:46:45.020Z,10.63
2023-02-06T06:49:47.543Z,12.23
2023-02-06T06:52:49.819Z,14.23
2023-02-06T06:55:52.238Z,12.25
2023-02-06T06:58:55.504Z,10.17
2023-02-06T07:01:57.877Z,9.20
2023-02-06T07:05:00.587Z,8.45
2023-02-06T07:08:03.003Z,9.05
2023-02-06T07:11:05.479Z,10.47
2023-02-06T07:14:07.841Z,10.13
2023-02-06T07:17:10.212Z,11.05
2023-02-06T07:20:12.604Z,10.82
2023-02-06T07:23:14.963Z,10.40
2023-02-06T07:26:17.374Z,8.93
2023-02-06T07:29:19.800Z,8.47
2023-02-06T07:32:22.323Z,10.02
2023-02-06T07:35:24.801Z,10.10
2023-02-06T07:38:27.244Z,9.82
2023-02-06T07:41:29.729Z,8.77
2023-02-06T07:44:32.122Z,8.45
2023-02-06T07:47:34.349Z,8.48
2023-02-06T07:50:37.040Z,9.05
2023-02-06T07:53:39.306Z,8.47
2023-02-06T07:56:41.952Z,8.00
2023-02-06T07:59:44.291Z,8.00
2023-02-06T08:02:46.595Z,8.02
2023-02-06T08:05:48.919Z,8.18
2023-02-06T08:08:51.923Z,8.57
2023-02-06T08:11:55.536Z,9.33
2023-02-06T08:14:58.170Z,9.13
2023-02-06T08:18:00.538Z,9.05
2023-02-06T08:21:07.903Z,8.95
2023-02-06T08:24:12.266Z,7.77
2023-02-06T08:27:15.355Z,7.27
2023-02-06T08:30:17.846Z,7.70
2023-02-06T08:33:22.046Z,7.30
2023-02-06T08:36:24.922Z,7.07
2023-02-06T08:39:28.247Z,7.20
2023-02-06T08:42:32.708Z,7.53
2023-02-06T08:45:36.677Z,7.38
2023-02-06T08:48:39.166Z,7.20
2023-02-06T08:51:41.719Z,7.90
2023-02-06T08:54:44.013Z,7.27
2023-02-06T08:57:46.287Z,8.60
2023-02-06T09:00:48.556Z,7.55
2023-02-06T09:03:54.779Z,7.28
2023-02-06T09:06:57.680Z,7.75
2023-02-06T09:10:00.673Z,8.37
2023-02-06T09:13:03.512Z,7.70
2023-02-06T09:16:06.776Z,8.18
2023-02-06T09:19:10.632Z,8.18
2023-02-06T09:22:13.010Z,26.10
2023-02-06T09:25:15.346Z,8.77
2023-02-06T09:28:18.042Z,8.10
2023-02-06T09:31:20.977Z,8.18
2023-02-06T09:34:24.441Z,8.18
2023-02-06T09:37:26.727Z,9.27
2023-02-06T09:40:29.748Z,8.60
2023-02-06T09:43:33.225Z,8.87
2023-02-06T09:46:47.906Z,9.55
2023-02-06T09:50:15.678Z,8.10
2023-02-06T09:53:41.224Z,7.97
2023-02-06T09:56:55.305Z,8.97
2023-02-06T10:00:04.341Z,7.73
2023-02-06T10:03:33.875Z,7.72
2023-02-06T10:06:54.533Z,8.57
2023-02-06T10:10:03.465Z,7.80
2023-02-06T10:13:30.337Z,8.33
2023-02-06T10:16:48.399Z,7.90
2023-02-06T10:20:07.095Z,7.28
2023-02-06T10:23:21.626Z,7.20
2023-02-06T10:26:27.423Z,8.40
2023-02-06T10:29:34.773Z,6.57
2023-02-06T10:33:20.300Z,7.33
2023-02-06T10:36:54.506Z,6.15
2023-02-06T10:40:23.333Z,5.93
2023-02-06T10:43:34.190Z,6.40
2023-02-06T10:46:48.949Z,6.53
2023-02-06T10:53:51.191Z,7.25
2023-02-06T10:56:56.255Z,7.25
2023-02-06T11:00:02.955Z,7.40
2023-02-06T11:03:08.602Z,7.23
2023-02-06T11:06:21.370Z,7.17
2023-02-06T11:09:26.294Z,6.97
2023-02-06T11:12:50.711Z,6.93
2023-02-06T11:17:05.245Z,7.72
2023-02-06T11:20:25.756Z,7.07
2023-02-06T11:23:32.735Z,6.77
2023-02-06T11:26:54.845Z,6.38
2023-02-06T11:31:12.704Z,7.30
2023-02-06T11:34:32.204Z,5.95
2023-02-06T11:37:46.359Z,7.00
2023-02-06T11:41:22.195Z,6.70
2023-02-06T11:44:30.534Z,6.80
2023-02-06T11:48:05.661Z,6.03
2023-02-06T11:51:48.729Z,6.30
2023-02-06T12:05:09.009Z,5.80
2023-02-06T12:08:14.294Z,6.03
2023-02-06T12:11:23.699Z,5.90
2023-02-06T12:14:40.182Z,5.67
2023-02-06T12:18:03.181Z,5.90
2023-02-06T12:21:24.393Z,5.90
2023-02-06T12:24:45.436Z,6.43
2023-02-06T12:28:17.006Z,5.97
2023-02-06T12:31:54.179Z,6.67
2023-02-06T12:35:28.115Z,5.93
2023-02-06T12:38:56.242Z,6.30
2023-02-06T12:42:39.837Z,6.00
2023-02-06T12:46:01.867Z,5.93
2023-02-06T12:49:24.751Z,5.97
2023-02-06T12:52:44.458Z,6.30
2023-02-06T12:56:05.114Z,6.38
2023-02-06T12:59:58.944Z,7.03
2023-02-06T13:03:24.605Z,6.32
2023-02-06T13:06:57.945Z,6.77
2023-02-06T13:10:02.577Z,6.00
2023-02-06T13:13:07.196Z,6.63
2023-02-06T13:16:10.360Z,7.05
2023-02-06T13:19:52.979Z,6.28
2023-02-06T13:23:14.713Z,6.50
2023-02-06T13:26:18.100Z,6.43
2023-02-06T13:29:41.680Z,6.60
2023-02-06T13:32:47.129Z,7.13
2023-02-06T13:36:10.160Z,6.75
2023-02-06T13:39:27.485Z,6.47
2023-02-06T13:42:59.113Z,6.27
2023-02-06T13:46:11.258Z,7.00
2023-02-06T13:49:45.774Z,7.57
2023-02-06T13:52:48.201Z,6.28
2023-02-06T13:56:08.494Z,6.32
2023-02-06T13:59:21.848Z,7.03
2023-02-06T14:02:47.338Z,7.00
2023-02-06T14:06:22.678Z,6.50
2023-02-06T14:10:19.434Z,6.38
2023-02-06T14:13:30.885Z,6.18
2023-02-06T14:16:58.002Z,6.90
2023-02-06T14:20:20.910Z,6.60
2023-02-06T14:23:59.164Z,6.85
2023-02-06T14:27:24.983Z,6.20
2023-02-06T14:30:45.212Z,6.45
2023-02-06T14:33:54.267Z,6.57
2023-02-06T14:37:07.074Z,6.37
2023-02-06T14:40:21.005Z,6.18
2023-02-06T14:43:27.860Z,5.88
2023-02-06T14:46:31.453Z,8.05
2023-02-06T14:49:35.965Z,8.57
2023-02-06T14:52:38.868Z,7.07
2023-02-06T14:55:53.498Z,7.05
2023-02-06T14:58:56.325Z,7.10
2023-02-06T15:01:59.904Z,5.57
2023-02-06T15:05:03.729Z,6.53
2023-02-06T15:08:07.096Z,7.03
2023-02-06T15:11:20.668Z,7.20
2023-02-06T15:14:38.129Z,6.47
2023-02-06T15:17:42.210Z,5.90
2023-02-06T15:20:47.132Z,6.50
2023-02-06T15:24:55.682Z,6.70
2023-02-06T15:32:39.277Z,6.18
2023-02-06T15:36:55.477Z,6.40
2023-02-06T15:40:06.588Z,7.00
2023-02-06T15:43:20.095Z,7.03
2023-02-06T15:46:22.953Z,6.88
2023-02-06T15:50:00.400Z,6.68
2023-02-06T15:53:17.498Z,6.60
2023-02-06T15:56:31.996Z,7.23
2023-02-06T15:59:41.736Z,7.63
2023-02-06T16:02:44.302Z,7.80
2023-02-06T16:05:46.819Z,9.00
2023-02-06T16:09:07.704Z,7.35
2023-02-06T16:12:10.298Z,6.83
2023-02-06T16:15:32.662Z,7.07
2023-02-06T16:18:37.620Z,8.07
2023-02-06T16:21:43.568Z,8.95
2023-02-06T16:24:45.965Z,9.10
2023-02-06T16:27:50.866Z,9.47
2023-02-06T16:31:01.957Z,10.30
2023-02-06T16:34:30.872Z,12.50
2023-02-06T16:37:33.201Z,11.57
2023-02-06T16:40:35.827Z,9.43
2023-02-06T16:43:38.344Z,10.57
2023-02-06T16:46:42.091Z,9.30
2023-02-06T16:49:48.081Z,9.90
2023-02-06T16:52:57.375Z,9.07
2023-02-06T16:56:00.415Z,9.30
2023-02-06T16:59:03.315Z,9.10
2023-02-06T17:02:11.959Z,8.90
2023-02-06T17:05:15.627Z,10.05
2023-02-06T17:08:22.671Z,9.02
2023-02-06T17:11:25.206Z,9.27
2023-02-06T17:14:27.546Z,9.80
2023-02-06T17:17:30.072Z,11.07
2023-02-06T17:20:35.906Z,11.30
2023-02-06T17:23:38.619Z,11.13
2023-02-06T17:26:40.976Z,11.40
2023-02-06T17:29:45.022Z,10.20
2023-02-06T17:32:49.343Z,10.40
2023-02-06T17:35:51.744Z,10.85
2023-02-06T17:38:54.098Z,9.95
2023-02-06T17:41:56.481Z,9.85
2023-02-06T17:44:59.106Z,9.20
2023-02-06T17:48:01.414Z,9.50
2023-02-06T17:51:05.486Z,10.35
2023-02-06T17:54:08.736Z,10.27
2023-02-06T17:57:13.364Z,10.38
2023-02-06T18:00:17.671Z,9.73
2023-02-06T18:03:20.884Z,9.60
2023-02-06T18:06:23.680Z,10.55
2023-02-06T18:09:26.126Z,10.35
2023-02-06T18:12:28.522Z,12.07
2023-02-06T18:15:31.997Z,11.57
2023-02-06T18:18:34.275Z,12.50
2023-02-06T18:21:36.709Z,12.13
2023-02-06T18:24:39.564Z,11.65
2023-02-06T18:27:42.845Z,13.60
2023-02-06T18:30:45.255Z,12.83
2023-02-06T18:33:47.679Z,12.70
2023-02-06T18:36:50.417Z,14.30
2023-02-06T18:39:55.103Z,13.88
2023-02-06T18:42:57.628Z,14.27
2023-02-06T18:46:07.092Z,13.97
2023-02-06T18:49:11.039Z,15.63
2023-02-06T18:52:13.978Z,15.85
2023-02-06T18:55:16.434Z,17.17
2023-02-06T18:58:18.771Z,16.85
2023-02-06T19:01:23.533Z,16.23
2023-02-06T19:04:26.773Z,18.37
2023-02-06T19:07:29.184Z,18.00
2023-02-06T19:10:31.904Z,16.42
2023-02-06T19:13:34.566Z,16.73
2023-02-06T19:16:40.963Z,14.70
2023-02-06T19:19:43.293Z,13.90
2023-02-06T19:22:46.382Z,15.77
2023-02-06T19:25:48.692Z,14.13
2023-02-06T19:28:52.263Z,13.82
2023-02-06T19:31:56.160Z,14.07
2023-02-06T19:34:58.616Z,13.45
2023-02-06T19:38:02.580Z,14.52
2023-02-06T19:41:09.464Z,13.32
2023-02-06T19:44:14.044Z,13.25
2023-02-06T19:47:16.446Z,11.13
2023-02-06T19:50:19.194Z,12.20
2023-02-06T19:53:21.835Z,11.50
2023-02-06T19:56:26.863Z,10.93
2023-02-06T19:59:29.774Z,13.70
2023-02-06T20:02:32.119Z,10.93
2023-02-06T20:05:35.914Z,11.40
2023-02-06T20:08:39.846Z,12.90
2023-02-06T20:11:42.898Z,13.40
2023-02-06T20:14:45.283Z,12.80
2023-02-06T20:17:47.692Z,11.47
2023-02-06T20:20:50.041Z,9.88
2023-02-06T20:23:53.064Z,10.68
2023-02-06T20:26:58.528Z,9.55
2023-02-06T20:30:00.957Z,8.57
2023-02-06T20:33:03.367Z,9.95
2023-02-06T20:36:10.768Z,10.30
2023-02-06T20:39:14.419Z,9.38
2023-02-06T20:42:16.932Z,9.60
2023-02-06T20:45:19.330Z,10.90
2023-02-06T20:48:21.713Z,10.20
2023-02-06T20:51:24.558Z,9.90
2023-02-06T20:54:27.208Z,9.02
2023-02-06T20:57:30.470Z,12.10
2023-02-06T21:00:34.529Z,11.32
2023-02-06T21:03:38.969Z,10.15
2023-02-06T21:06:43.223Z,11.25
2023-02-06T21:09:45.600Z,11.07
2023-02-06T21:12:47.918Z,10.23
2023-02-06T21:15:54.774Z,9.98
2023-02-06T21:18:58.046Z,11.23
2023-02-06T21:22:00.865Z,10.95
2023-02-06T21:25:03.441Z,10.63
2023-02-06T21:28:06.045Z,10.95
2023-02-06T21:31:20.638Z,10.07
2023-02-06T21:34:25.585Z,10.07
2023-02-06T21:37:28.719Z,9.67
2023-02-06T21:40:31.034Z,10.65
2023-02-06T21:43:33.847Z,10.48
2023-02-06T21:46:36.322Z,10.10
2023-02-06T21:49:38.721Z,9.53
2023-02-06T21:52:41.091Z,8.95
2023-02-06T21:55:44.763Z,9.80
2023-02-06T21:58:47.645Z,10.93
2023-02-06T22:01:49.977Z,10.67
2023-02-06T22:04:52.321Z,10.48
2023-02-06T22:07:54.694Z,11.55
2023-02-06T22:10:57.036Z,10.95
2023-02-06T22:14:02.139Z,11.17
2023-02-06T22:17:04.456Z,10.30
2023-02-06T22:20:07.097Z,10.38
2023-02-06T22:23:09.400Z,10.73
2023-02-06T22:26:14.208Z,10.80
2023-02-06T22:29:17.861Z,11.63
2023-02-06T22:32:20.123Z,10.10
2023-02-06T22:35:22.507Z,11.52
2023-02-06T22:38:24.840Z,10.87
2023-02-06T22:41:28.084Z,11.32
2023-02-06T22:44:30.461Z,11.27
2023-02-06T22:47:33.270Z,11.20
2023-02-06T22:50:36.530Z,10.10
2023-02-06T22:53:39.577Z,11.52
2023-02-06T22:56:43.576Z,10.90
2023-02-06T22:59:45.894Z,11.17
2023-02-06T23:02:48.430Z,11.23
2023-02-06T23:05:50.729Z,12.70
2023-02-06T23:08:53.749Z,13.48
2023-02-06T23:11:58.530Z,14.30
2023-02-06T23:15:00.875Z,13.93
2023-02-06T23:18:03.240Z,15.40
2023-02-06T23:21:08.633Z,17.10
2023-02-06T23:24:12.090Z,17.13
2023-02-06T23:27:14.681Z,17.63
2023-02-06T23:30:17.002Z,17.95
2023-02-06T23:33:19.623Z,17.30
2023-02-06T23:36:23.857Z,18.83
2023-02-06T23:39:26.267Z,17.90
2023-02-06T23:42:29.337Z,19.30
2023-02-06T23:45:32.044Z,19.52
2023-02-06T23:48:35.084Z,19.48
2023-02-06T23:51:38.186Z,20.40
2023-02-06T23:54:40.570Z,19.87
2023-02-06T23:57:42.911Z,20.92
